sensor_id;sensor_type;location;lat;lon;timestamp;pressure;altitude;pressure_sealevel;temperature;humidity
28701;BME280;15877;52.344;16.790;2023-04-06T00:01:27;101274.77;;;5.18;52.45
28701;BME280;15877;52.344;16.790;2023-04-06T00:03:59;101278.38;;;5.18;52.31
28701;BME280;15877;52.344;16.790;2023-04-06T00:06:32;101264.55;;;5.07;52.43
28701;BME280;15877;52.344;16.790;2023-04-06T00:09:06;101281.42;;;5.15;52.56
28701;BME280;15877;52.344;16.790;2023-04-06T00:11:39;101278.55;;;5.12;52.53
28701;BME280;15877;52.344;16.790;2023-04-06T00:14:11;101276.77;;;5.11;52.67
28701;BME280;15877;52.344;16.790;2023-04-06T00:16:45;101278.67;;;5.07;52.47
28701;BME280;15877;52.344;16.790;2023-04-06T00:19:17;101263.35;;;4.96;52.57
28701;BME280;15877;52.344;16.790;2023-04-06T00:21:50;101275.84;;;5.03;52.74
28701;BME280;15877;52.344;16.790;2023-04-06T00:24:22;101277.79;;;4.99;52.97
28701;BME280;15877;52.344;16.790;2023-04-06T00:26:55;101262.68;;;4.88;53.00
28701;BME280;15877;52.344;16.790;2023-04-06T00:29:27;101270.17;;;4.94;52.99
28701;BME280;15877;52.344;16.790;2023-04-06T00:32:00;101263.50;;;4.91;52.92
28701;BME280;15877;52.344;16.790;2023-04-06T00:34:33;101267.75;;;4.91;52.89
28701;BME280;15877;52.344;16.790;2023-04-06T00:37:05;101269.05;;;4.89;53.00
28701;BME280;15877;52.344;16.790;2023-04-06T00:39:38;101273.40;;;4.87;53.22
28701;BME280;15877;52.344;16.790;2023-04-06T00:42:13;101271.59;;;4.87;53.11
28701;BME280;15877;52.344;16.790;2023-04-06T00:44:45;101262.86;;;4.82;53.45
28701;BME280;15877;52.344;16.790;2023-04-06T00:47:18;101259.98;;;4.81;53.34
28701;BME280;15877;52.344;16.790;2023-04-06T00:49:51;101258.42;;;4.78;53.51
28701;BME280;15877;52.344;16.790;2023-04-06T00:52:24;101261.60;;;4.79;53.51
28701;BME280;15877;52.344;16.790;2023-04-06T00:54:57;101258.36;;;4.73;53.19
28701;BME280;15877;52.344;16.790;2023-04-06T00:57:32;101263.08;;;4.77;53.42
28701;BME280;15877;52.344;16.790;2023-04-06T01:00:07;101261.95;;;4.75;53.25
28701;BME280;15877;52.344;16.790;2023-04-06T01:02:39;101264.09;;;4.73;53.44
28701;BME280;15877;52.344;16.790;2023-04-06T01:05:12;101265.08;;;4.73;53.58
28701;BME280;15877;52.344;16.790;2023-04-06T01:07:54;101252.34;;;4.63;53.61
28701;BME280;15877;52.344;16.790;2023-04-06T01:10:30;101261.72;;;4.67;53.60
28701;BME280;15877;52.344;16.790;2023-04-06T01:13:12;101261.09;;;4.66;53.59
28701;BME280;15877;52.344;16.790;2023-04-06T01:15:55;101264.30;;;4.65;53.66
28701;BME280;15877;52.344;16.790;2023-04-06T01:18:35;101261.69;;;4.63;53.91
28701;BME280;15877;52.344;16.790;2023-04-06T01:21:19;101259.88;;;4.60;53.98
28701;BME280;15877;52.344;16.790;2023-04-06T01:24:11;101245.39;;;4.50;53.89
28701;BME280;15877;52.344;16.790;2023-04-06T01:27:00;101263.42;;;4.56;53.94
28701;BME280;15877;52.344;16.790;2023-04-06T01:29:43;101263.90;;;4.57;53.87
28701;BME280;15877;52.344;16.790;2023-04-06T01:32:17;101261.84;;;4.55;53.87
28701;BME280;15877;52.344;16.790;2023-04-06T01:34:52;101268.02;;;4.54;54.05
28701;BME280;15877;52.344;16.790;2023-04-06T01:37:26;101263.55;;;4.49;54.03
28701;BME280;15877;52.344;16.790;2023-04-06T01:40:00;101267.52;;;4.46;54.14
28701;BME280;15877;52.344;16.790;2023-04-06T01:42:43;101252.98;;;4.35;54.07
28701;BME280;15877;52.344;16.790;2023-04-06T01:45:19;101261.30;;;4.40;54.18
28701;BME280;15877;52.344;16.790;2023-04-06T01:47:52;101258.01;;;4.40;54.43
28701;BME280;15877;52.344;16.790;2023-04-06T01:50:27;101257.25;;;4.39;54.57
28701;BME280;15877;52.344;16.790;2023-04-06T01:52:59;101260.09;;;4.38;54.26
28701;BME280;15877;52.344;16.790;2023-04-06T01:55:32;101261.90;;;4.38;54.39
28701;BME280;15877;52.344;16.790;2023-04-06T01:58:20;101264.55;;;4.37;54.51
28701;BME280;15877;52.344;16.790;2023-04-06T02:00:53;101266.09;;;4.34;54.61
28701;BME280;15877;52.344;16.790;2023-04-06T02:03:25;101259.25;;;4.31;54.54
28701;BME280;15877;52.344;16.790;2023-04-06T02:06:04;101247.72;;;4.19;54.62
28701;BME280;15877;52.344;16.790;2023-04-06T02:08:40;101246.33;;;4.18;54.57
28701;BME280;15877;52.344;16.790;2023-04-06T02:11:13;101258.78;;;4.25;54.69
28701;BME280;15877;52.344;16.790;2023-04-06T02:13:50;101262.12;;;4.26;54.54
28701;BME280;15877;52.344;16.790;2023-04-06T02:16:23;101261.04;;;4.25;54.52
28701;BME280;15877;52.344;16.790;2023-04-06T02:18:56;101256.38;;;4.24;54.50
28701;BME280;15877;52.344;16.790;2023-04-06T02:21:28;101251.52;;;4.22;54.48
28701;BME280;15877;52.344;16.790;2023-04-06T02:24:02;101252.83;;;4.21;54.33
28701;BME280;15877;52.344;16.790;2023-04-06T02:26:34;101252.77;;;4.19;54.22
28701;BME280;15877;52.344;16.790;2023-04-06T02:29:06;101250.52;;;4.16;54.38
28701;BME280;15877;52.344;16.790;2023-04-06T02:31:39;101253.80;;;4.14;54.39
28701;BME280;15877;52.344;16.790;2023-04-06T02:34:12;101253.34;;;4.12;54.40
28701;BME280;15877;52.344;16.790;2023-04-06T02:36:51;101248.86;;;4.10;54.32
28701;BME280;15877;52.344;16.790;2023-04-06T02:39:24;101249.45;;;4.08;54.23
28701;BME280;15877;52.344;16.790;2023-04-06T02:41:56;101254.16;;;4.06;54.44
28701;BME280;15877;52.344;16.790;2023-04-06T02:44:30;101254.89;;;4.05;54.45
28701;BME280;15877;52.344;16.790;2023-04-06T02:47:02;101258.14;;;4.05;54.40
28701;BME280;15877;52.344;16.790;2023-04-06T02:49:35;101255.64;;;4.03;54.56
28701;BME280;15877;52.344;16.790;2023-04-06T02:52:07;101260.19;;;4.00;54.74
28701;BME280;15877;52.344;16.790;2023-04-06T02:54:40;101252.74;;;3.92;54.57
28701;BME280;15877;52.344;16.790;2023-04-06T02:57:13;101267.39;;;3.98;54.81
28701;BME280;15877;52.344;16.790;2023-04-06T02:59:47;101267.98;;;3.98;54.75
28701;BME280;15877;52.344;16.790;2023-04-06T03:02:27;101269.56;;;3.96;54.70
28701;BME280;15877;52.344;16.790;2023-04-06T03:05:07;101267.92;;;3.95;54.78
28701;BME280;15877;52.344;16.790;2023-04-06T03:07:43;101267.34;;;3.94;54.72
28701;BME280;15877;52.344;16.790;2023-04-06T03:10:25;101269.93;;;3.90;54.85
28701;BME280;15877;52.344;16.790;2023-04-06T03:12:58;101271.67;;;3.87;54.88
28701;BME280;15877;52.344;16.790;2023-04-06T03:15:49;101269.88;;;3.84;54.98
28701;BME280;15877;52.344;16.790;2023-04-06T03:18:24;101274.73;;;3.85;55.03
28701;BME280;15877;52.344;16.790;2023-04-06T03:20:59;101274.06;;;3.86;55.10
28701;BME280;15877;52.344;16.790;2023-04-06T03:23:38;101278.20;;;3.85;55.31
28701;BME280;15877;52.344;16.790;2023-04-06T03:26:11;101281.18;;;3.84;55.59
28701;BME280;15877;52.344;16.790;2023-04-06T03:28:43;101285.04;;;3.83;55.64
28701;BME280;15877;52.344;16.790;2023-04-06T03:31:17;101283.17;;;3.84;55.70
28701;BME280;15877;52.344;16.790;2023-04-06T03:33:56;101280.80;;;3.80;55.95
28701;BME280;15877;52.344;16.790;2023-04-06T03:36:31;101284.56;;;3.82;55.84
28701;BME280;15877;52.344;16.790;2023-04-06T03:39:04;101284.71;;;3.80;55.90
28701;BME280;15877;52.344;16.790;2023-04-06T03:41:39;101287.84;;;3.80;55.88
28701;BME280;15877;52.344;16.790;2023-04-06T03:44:21;101294.23;;;3.83;55.69
28701;BME280;15877;52.344;16.790;2023-04-06T03:46:53;101294.17;;;3.80;55.67
28701;BME280;15877;52.344;16.790;2023-04-06T03:49:27;101293.10;;;3.78;55.65
28701;BME280;15877;52.344;16.790;2023-04-06T03:52:00;101280.96;;;3.66;55.73
28701;BME280;15877;52.344;16.790;2023-04-06T03:54:33;101282.95;;;3.66;55.69
28701;BME280;15877;52.344;16.790;2023-04-06T03:57:06;101295.14;;;3.74;55.72
28701;BME280;15877;52.344;16.790;2023-04-06T03:59:39;101300.45;;;3.75;55.93
28701;BME280;15877;52.344;16.790;2023-04-06T04:02:12;101300.61;;;3.72;56.07
28701;BME280;15877;52.344;16.790;2023-04-06T04:04:44;101299.22;;;3.73;55.96
28701;BME280;15877;52.344;16.790;2023-04-06T04:07:17;101301.00;;;3.72;55.79
28701;BME280;15877;52.344;16.790;2023-04-06T04:09:49;101302.52;;;3.69;55.72
28701;BME280;15877;52.344;16.790;2023-04-06T04:12:22;101305.90;;;3.71;55.55
28701;BME280;15877;52.344;16.790;2023-04-06T04:14:55;101303.75;;;3.68;55.70
28701;BME280;15877;52.344;16.790;2023-04-06T04:17:31;101304.67;;;3.68;55.76
28701;BME280;15877;52.344;16.790;2023-04-06T04:20:05;101297.38;;;3.67;55.76
28701;BME280;15877;52.344;16.790;2023-04-06T04:22:38;101298.59;;;3.66;55.44
28701;BME280;15877;52.344;16.790;2023-04-06T04:25:11;101300.79;;;3.66;55.66
28701;BME280;15877;52.344;16.790;2023-04-06T04:27:47;101298.23;;;3.65;55.79
28701;BME280;15877;52.344;16.790;2023-04-06T04:30:21;101302.11;;;3.64;55.90
28701;BME280;15877;52.344;16.790;2023-04-06T04:32:54;101304.67;;;3.64;55.86
28701;BME280;15877;52.344;16.790;2023-04-06T04:35:27;101304.73;;;3.64;55.85
28701;BME280;15877;52.344;16.790;2023-04-06T04:38:01;101306.38;;;3.64;55.96
28701;BME280;15877;52.344;16.790;2023-04-06T04:40:34;101300.80;;;3.65;56.06
28701;BME280;15877;52.344;16.790;2023-04-06T04:43:11;101306.75;;;3.65;56.15
28701;BME280;15877;52.344;16.790;2023-04-06T04:45:43;101304.86;;;3.63;56.02
28701;BME280;15877;52.344;16.790;2023-04-06T04:48:42;101304.03;;;3.63;56.03
28701;BME280;15877;52.344;16.790;2023-04-06T04:51:16;101305.23;;;3.61;56.12
28701;BME280;15877;52.344;16.790;2023-04-06T04:54:06;101308.72;;;3.62;56.14
28701;BME280;15877;52.344;16.790;2023-04-06T04:56:39;101306.45;;;3.63;56.19
28701;BME280;15877;52.344;16.790;2023-04-06T04:59:23;101309.17;;;3.65;56.23
28701;BME280;15877;52.344;16.790;2023-04-06T05:02:01;101312.48;;;3.65;56.48
28701;BME280;15877;52.344;16.790;2023-04-06T05:04:41;101311.03;;;3.62;56.79
28701;BME280;15877;52.344;16.790;2023-04-06T05:07:15;101312.61;;;3.63;56.83
28701;BME280;15877;52.344;16.790;2023-04-06T05:09:50;101317.02;;;3.66;56.82
28701;BME280;15877;52.344;16.790;2023-04-06T05:12:23;101314.43;;;3.66;56.97
28701;BME280;15877;52.344;16.790;2023-04-06T05:15:07;101318.29;;;3.69;57.20
28701;BME280;15877;52.344;16.790;2023-04-06T05:17:39;101319.77;;;3.70;57.53
28701;BME280;15877;52.344;16.790;2023-04-06T05:20:14;101303.73;;;3.62;57.59
28701;BME280;15877;52.344;16.790;2023-04-06T05:22:51;101289.60;;;3.55;57.63
28701;BME280;15877;52.344;16.790;2023-04-06T05:25:23;101316.70;;;3.76;57.67
28701;BME280;15877;52.344;16.790;2023-04-06T05:27:57;101322.87;;;3.79;57.61
28701;BME280;15877;52.344;16.790;2023-04-06T05:30:37;101323.45;;;3.81;57.71
28701;BME280;15877;52.344;16.790;2023-04-06T05:33:09;101323.85;;;3.84;57.61
28701;BME280;15877;52.344;16.790;2023-04-06T05:36:05;101323.57;;;3.88;57.58
28701;BME280;15877;52.344;16.790;2023-04-06T05:38:41;101322.58;;;3.91;57.73
28701;BME280;15877;52.344;16.790;2023-04-06T05:41:52;101325.25;;;3.96;57.58
28701;BME280;15877;52.344;16.790;2023-04-06T05:44:47;101325.09;;;3.99;57.67
28701;BME280;15877;52.344;16.790;2023-04-06T05:47:20;101325.18;;;4.02;57.73
28701;BME280;15877;52.344;16.790;2023-04-06T05:49:59;101324.36;;;4.08;57.81
28701;BME280;15877;52.344;16.790;2023-04-06T05:52:36;101329.55;;;4.09;58.05
28701;BME280;15877;52.344;16.790;2023-04-06T05:55:09;101330.39;;;4.15;58.01
28701;BME280;15877;52.344;16.790;2023-04-06T05:57:44;101332.20;;;4.19;58.17
28701;BME280;15877;52.344;16.790;2023-04-06T06:00:17;101333.34;;;4.23;58.19
28701;BME280;15877;52.344;16.790;2023-04-06T06:02:55;101326.98;;;4.29;57.98
28701;BME280;15877;52.344;16.790;2023-04-06T06:05:31;101328.52;;;4.32;57.77
28701;BME280;15877;52.344;16.790;2023-04-06T06:08:09;101324.10;;;4.36;57.60
28701;BME280;15877;52.344;16.790;2023-04-06T06:10:42;101327.34;;;4.42;57.62
28701;BME280;15877;52.344;16.790;2023-04-06T06:13:16;101326.93;;;4.44;57.58
28701;BME280;15877;52.344;16.790;2023-04-06T06:15:48;101329.27;;;4.46;57.59
28701;BME280;15877;52.344;16.790;2023-04-06T06:18:22;101329.50;;;4.52;57.64
28701;BME280;15877;52.344;16.790;2023-04-06T06:20:56;101328.17;;;4.55;57.48
28701;BME280;15877;52.344;16.790;2023-04-06T06:23:29;101326.45;;;4.61;57.22
28701;BME280;15877;52.344;16.790;2023-04-06T06:26:02;101319.96;;;4.64;57.36
28701;BME280;15877;52.344;16.790;2023-04-06T06:28:35;101323.48;;;4.70;57.15
28701;BME280;15877;52.344;16.790;2023-04-06T06:31:08;101322.82;;;4.74;57.14
28701;BME280;15877;52.344;16.790;2023-04-06T06:33:42;101319.96;;;4.79;56.95
28701;BME280;15877;52.344;16.790;2023-04-06T06:36:14;101317.92;;;4.79;57.03
28701;BME280;15877;52.344;16.790;2023-04-06T06:38:47;101315.90;;;4.86;56.80
28701;BME280;15877;52.344;16.790;2023-04-06T06:41:21;101319.35;;;4.90;56.65
28701;BME280;15877;52.344;16.790;2023-04-06T06:43:54;101314.14;;;4.87;57.04
28701;BME280;15877;52.344;16.790;2023-04-06T06:46:27;101328.16;;;4.96;57.08
28701;BME280;15877;52.344;16.790;2023-04-06T06:49:00;101328.98;;;5.05;56.37
28701;BME280;15877;52.344;16.790;2023-04-06T06:51:32;101330.45;;;5.09;56.56
28701;BME280;15877;52.344;16.790;2023-04-06T06:54:06;101327.06;;;5.19;56.84
28701;BME280;15877;52.344;16.790;2023-04-06T06:56:39;101314.20;;;5.26;56.59
28701;BME280;15877;52.344;16.790;2023-04-06T06:59:12;101327.02;;;5.48;56.55
28701;BME280;15877;52.344;16.790;2023-04-06T07:01:45;101324.91;;;5.52;56.45
28701;BME280;15877;52.344;16.790;2023-04-06T07:04:17;101318.63;;;5.48;56.40
28701;BME280;15877;52.344;16.790;2023-04-06T07:06:50;101329.27;;;5.64;56.07
28701;BME280;15877;52.344;16.790;2023-04-06T07:09:23;101332.16;;;5.73;56.09
28701;BME280;15877;52.344;16.790;2023-04-06T07:11:57;101336.31;;;5.83;55.65
28701;BME280;15877;52.344;16.790;2023-04-06T07:14:31;101336.98;;;5.90;54.87
28701;BME280;15877;52.344;16.790;2023-04-06T07:17:03;101331.87;;;5.89;54.20
28701;BME280;15877;52.344;16.790;2023-04-06T07:19:36;101332.86;;;5.94;54.45
28701;BME280;15877;52.344;16.790;2023-04-06T07:22:09;101326.67;;;6.02;54.09
28701;BME280;15877;52.344;16.790;2023-04-06T07:24:42;101329.21;;;6.20;53.20
28701;BME280;15877;52.344;16.790;2023-04-06T07:27:15;101318.98;;;6.19;51.68
28701;BME280;15877;52.344;16.790;2023-04-06T07:29:48;101331.05;;;6.31;50.99
28701;BME280;15877;52.344;16.790;2023-04-06T07:32:21;101335.30;;;6.35;50.83
28701;BME280;15877;52.344;16.790;2023-04-06T07:34:55;101332.27;;;6.41;50.69
28701;BME280;15877;52.344;16.790;2023-04-06T07:37:28;101328.91;;;6.43;50.69
28701;BME280;15877;52.344;16.790;2023-04-06T07:40:01;101329.55;;;6.42;49.85
28701;BME280;15877;52.344;16.790;2023-04-06T07:42:34;101331.95;;;6.53;50.50
28701;BME280;15877;52.344;16.790;2023-04-06T07:45:10;101326.88;;;6.62;49.66
28701;BME280;15877;52.344;16.790;2023-04-06T07:47:41;101324.45;;;6.58;50.09
28701;BME280;15877;52.344;16.790;2023-04-06T07:50:14;101324.23;;;6.80;50.37
28701;BME280;15877;52.344;16.790;2023-04-06T07:52:47;101315.65;;;6.83;50.31
28701;BME280;15877;52.344;16.790;2023-04-06T07:55:19;101329.80;;;6.99;50.07
28701;BME280;15877;52.344;16.790;2023-04-06T07:57:52;101332.21;;;7.13;50.04
28701;BME280;15877;52.344;16.790;2023-04-06T08:00:25;101327.58;;;7.30;49.48
28701;BME280;15877;52.344;16.790;2023-04-06T08:02:57;101329.77;;;7.31;48.78
28701;BME280;15877;52.344;16.790;2023-04-06T08:05:31;101331.83;;;7.37;48.91
28701;BME280;15877;52.344;16.790;2023-04-06T08:08:03;101321.96;;;7.50;48.66
28701;BME280;15877;52.344;16.790;2023-04-06T08:10:36;101327.65;;;7.59;48.40
28701;BME280;15877;52.344;16.790;2023-04-06T08:13:09;101322.23;;;7.63;47.46
28701;BME280;15877;52.344;16.790;2023-04-06T08:15:41;101320.77;;;7.71;47.11
28701;BME280;15877;52.344;16.790;2023-04-06T08:18:14;101307.36;;;7.65;47.33
28701;BME280;15877;52.344;16.790;2023-04-06T08:20:47;101323.98;;;7.83;47.28
28701;BME280;15877;52.344;16.790;2023-04-06T08:23:20;101321.61;;;7.90;45.80
28701;BME280;15877;52.344;16.790;2023-04-06T08:25:52;101322.23;;;7.98;45.94
28701;BME280;15877;52.344;16.790;2023-04-06T08:28:25;101320.67;;;8.07;45.79
28701;BME280;15877;52.344;16.790;2023-04-06T08:30:57;101319.40;;;8.03;45.42
28701;BME280;15877;52.344;16.790;2023-04-06T08:33:30;101312.77;;;8.10;45.46
28701;BME280;15877;52.344;16.790;2023-04-06T08:36:10;101312.04;;;8.15;45.83
28701;BME280;15877;52.344;16.790;2023-04-06T08:38:44;101316.14;;;8.30;45.73
28701;BME280;15877;52.344;16.790;2023-04-06T08:41:17;101312.47;;;8.31;44.86
28701;BME280;15877;52.344;16.790;2023-04-06T08:43:52;101317.42;;;8.37;44.79
28701;BME280;15877;52.344;16.790;2023-04-06T08:46:30;101316.56;;;8.48;45.18
28701;BME280;15877;52.344;16.790;2023-04-06T08:49:03;101313.17;;;8.64;45.22
28701;BME280;15877;52.344;16.790;2023-04-06T08:51:36;101312.59;;;8.75;44.77
28701;BME280;15877;52.344;16.790;2023-04-06T08:54:09;101308.96;;;8.79;43.85
28701;BME280;15877;52.344;16.790;2023-04-06T08:56:42;101313.66;;;8.88;43.52
28701;BME280;15877;52.344;16.790;2023-04-06T08:59:15;101307.33;;;8.96;43.95
28701;BME280;15877;52.344;16.790;2023-04-06T09:01:48;101310.45;;;9.02;43.30
28701;BME280;15877;52.344;16.790;2023-04-06T09:04:21;101305.20;;;9.08;43.55
28701;BME280;15877;52.344;16.790;2023-04-06T09:06:54;101303.79;;;9.11;43.06
28701;BME280;15877;52.344;16.790;2023-04-06T09:09:27;101302.42;;;9.11;43.21
28701;BME280;15877;52.344;16.790;2023-04-06T09:11:59;101299.69;;;9.14;43.51
28701;BME280;15877;52.344;16.790;2023-04-06T09:14:38;101301.44;;;9.24;42.98
28701;BME280;15877;52.344;16.790;2023-04-06T09:17:21;101292.92;;;9.19;42.00
28701;BME280;15877;52.344;16.790;2023-04-06T09:19:56;101302.16;;;9.41;42.24
28701;BME280;15877;52.344;16.790;2023-04-06T09:22:36;101297.16;;;9.35;43.61
28701;BME280;15877;52.344;16.790;2023-04-06T09:25:17;101300.38;;;9.52;43.54
28701;BME280;15877;52.344;16.790;2023-04-06T09:28:00;101296.43;;;9.64;41.97
28701;BME280;15877;52.344;16.790;2023-04-06T09:30:32;101298.94;;;9.79;41.86
28701;BME280;15877;52.344;16.790;2023-04-06T09:33:06;101292.53;;;9.95;40.98
28701;BME280;15877;52.344;16.790;2023-04-06T09:35:39;101295.23;;;9.95;39.99
28701;BME280;15877;52.344;16.790;2023-04-06T09:38:13;101271.74;;;9.74;40.37
28701;BME280;15877;52.344;16.790;2023-04-06T09:40:52;101293.44;;;9.98;41.64
28701;BME280;15877;52.344;16.790;2023-04-06T09:43:31;101296.59;;;10.08;41.38
28701;BME280;15877;52.344;16.790;2023-04-06T09:46:05;101280.37;;;10.06;40.31
28701;BME280;15877;52.344;16.790;2023-04-06T09:48:38;101288.27;;;10.24;40.57
28701;BME280;15877;52.344;16.790;2023-04-06T09:51:13;101292.88;;;10.31;41.65
28701;BME280;15877;52.344;16.790;2023-04-06T09:53:51;101290.00;;;10.30;41.21
28701;BME280;15877;52.344;16.790;2023-04-06T09:56:27;101280.30;;;10.23;39.99
28701;BME280;15877;52.344;16.790;2023-04-06T09:59:05;101276.64;;;10.47;40.64
28701;BME280;15877;52.344;16.790;2023-04-06T10:01:40;101282.29;;;10.58;40.68
28701;BME280;15877;52.344;16.790;2023-04-06T10:04:27;101279.27;;;10.80;40.12
28701;BME280;15877;52.344;16.790;2023-04-06T10:07:03;101283.84;;;10.86;40.03
28701;BME280;15877;52.344;16.790;2023-04-06T10:09:36;101281.32;;;10.89;39.92
28701;BME280;15877;52.344;16.790;2023-04-06T10:12:10;101282.07;;;11.04;40.16
28701;BME280;15877;52.344;16.790;2023-04-06T10:14:45;101277.29;;;11.13;38.62
28701;BME280;15877;52.344;16.790;2023-04-06T10:17:17;101270.98;;;11.22;38.11
28701;BME280;15877;52.344;16.790;2023-04-06T10:19:52;101265.04;;;11.13;38.08
28701;BME280;15877;52.344;16.790;2023-04-06T10:22:32;101263.99;;;11.25;37.94
28701;BME280;15877;52.344;16.790;2023-04-06T10:25:05;101263.29;;;11.15;38.13
28701;BME280;15877;52.344;16.790;2023-04-06T10:27:38;101263.73;;;11.34;38.70
28701;BME280;15877;52.344;16.790;2023-04-06T10:30:15;101263.88;;;11.31;38.58
28701;BME280;15877;52.344;16.790;2023-04-06T10:32:48;101260.04;;;11.21;39.23
28701;BME280;15877;52.344;16.790;2023-04-06T10:35:21;101261.40;;;11.09;39.05
28701;BME280;15877;52.344;16.790;2023-04-06T10:38:03;101263.56;;;11.24;38.00
28701;BME280;15877;52.344;16.790;2023-04-06T10:40:39;101256.38;;;11.38;37.90
28701;BME280;15877;52.344;16.790;2023-04-06T10:43:17;101253.52;;;11.53;37.94
28701;BME280;15877;52.344;16.790;2023-04-06T10:45:56;101249.00;;;11.63;37.09
28701;BME280;15877;52.344;16.790;2023-04-06T10:48:39;101249.98;;;11.73;37.66
28701;BME280;15877;52.344;16.790;2023-04-06T10:51:14;101246.91;;;11.88;38.11
28701;BME280;15877;52.344;16.790;2023-04-06T10:53:48;101251.27;;;12.01;38.16
28701;BME280;15877;52.344;16.790;2023-04-06T10:56:24;101250.55;;;12.03;37.65
28701;BME280;15877;52.344;16.790;2023-04-06T10:58:58;101245.83;;;12.16;37.47
28701;BME280;15877;52.344;16.790;2023-04-06T11:01:31;101244.31;;;12.33;37.12
28701;BME280;15877;52.344;16.790;2023-04-06T11:04:04;101236.31;;;12.47;37.25
28701;BME280;15877;52.344;16.790;2023-04-06T11:06:39;101234.02;;;12.47;36.37
28701;BME280;15877;52.344;16.790;2023-04-06T11:09:12;101232.45;;;12.60;37.29
28701;BME280;15877;52.344;16.790;2023-04-06T11:11:55;101228.99;;;12.50;36.06
28701;BME280;15877;52.344;16.790;2023-04-06T11:14:28;101228.41;;;12.23;37.03
28701;BME280;15877;52.344;16.790;2023-04-06T11:17:01;101225.33;;;12.12;37.17
28701;BME280;15877;52.344;16.790;2023-04-06T11:19:35;101229.52;;;12.40;36.15
28701;BME280;15877;52.344;16.790;2023-04-06T11:22:09;101222.22;;;12.47;35.24
28701;BME280;15877;52.344;16.790;2023-04-06T11:24:42;101218.22;;;12.58;35.34
28701;BME280;15877;52.344;16.790;2023-04-06T11:27:15;101216.30;;;12.75;35.43
28701;BME280;15877;52.344;16.790;2023-04-06T11:29:48;101211.37;;;12.73;36.24
28701;BME280;15877;52.344;16.790;2023-04-06T11:32:25;101204.81;;;12.72;35.83
28701;BME280;15877;52.344;16.790;2023-04-06T11:34:59;101202.75;;;12.88;36.94
28701;BME280;15877;52.344;16.790;2023-04-06T11:37:31;101209.55;;;12.68;36.15
28701;BME280;15877;52.344;16.790;2023-04-06T11:40:09;101208.30;;;12.78;36.51
28701;BME280;15877;52.344;16.790;2023-04-06T11:42:42;101195.01;;;12.41;36.68
28701;BME280;15877;52.344;16.790;2023-04-06T11:45:24;101198.61;;;12.48;36.69
28701;BME280;15877;52.344;16.790;2023-04-06T11:48:00;101187.64;;;12.73;36.01
28701;BME280;15877;52.344;16.790;2023-04-06T11:50:34;101196.14;;;12.91;35.96
28701;BME280;15877;52.344;16.790;2023-04-06T11:53:07;101192.69;;;12.96;36.13
28701;BME280;15877;52.344;16.790;2023-04-06T11:55:39;101194.42;;;13.15;35.36
28701;BME280;15877;52.344;16.790;2023-04-06T11:58:16;101186.11;;;13.24;35.26
28701;BME280;15877;52.344;16.790;2023-04-06T12:00:49;101185.83;;;12.84;35.00
28701;BME280;15877;52.344;16.790;2023-04-06T12:03:21;101191.44;;;12.57;35.75
28701;BME280;15877;52.344;16.790;2023-04-06T12:05:54;101186.91;;;12.61;35.89
28701;BME280;15877;52.344;16.790;2023-04-06T12:08:29;101190.04;;;12.83;36.23
28701;BME280;15877;52.344;16.790;2023-04-06T12:11:02;101182.39;;;12.96;35.26
28701;BME280;15877;52.344;16.790;2023-04-06T12:13:35;101180.52;;;13.06;35.06
28701;BME280;15877;52.344;16.790;2023-04-06T12:16:08;101164.48;;;13.06;34.92
28701;BME280;15877;52.344;16.790;2023-04-06T12:18:41;101166.27;;;13.21;35.14
28701;BME280;15877;52.344;16.790;2023-04-06T12:21:14;101163.34;;;13.15;34.41
28701;BME280;15877;52.344;16.790;2023-04-06T12:23:47;101167.32;;;13.08;34.51
28701;BME280;15877;52.344;16.790;2023-04-06T12:26:19;101159.33;;;13.21;36.33
28701;BME280;15877;52.344;16.790;2023-04-06T12:28:52;101163.04;;;13.33;35.88
28701;BME280;15877;52.344;16.790;2023-04-06T12:31:25;101159.33;;;13.38;35.17
28701;BME280;15877;52.344;16.790;2023-04-06T12:33:57;101159.50;;;13.39;35.07
28701;BME280;15877;52.344;16.790;2023-04-06T12:36:30;101156.35;;;13.33;34.33
28701;BME280;15877;52.344;16.790;2023-04-06T12:39:03;101145.61;;;13.27;34.22
28701;BME280;15877;52.344;16.790;2023-04-06T12:41:36;101147.32;;;13.19;35.01
28701;BME280;15877;52.344;16.790;2023-04-06T12:44:11;101145.94;;;13.07;34.69
28701;BME280;15877;52.344;16.790;2023-04-06T12:46:44;101140.23;;;13.19;35.08
28701;BME280;15877;52.344;16.790;2023-04-06T12:49:18;101142.10;;;13.20;34.98
28701;BME280;15877;52.344;16.790;2023-04-06T12:51:50;101147.65;;;13.23;35.36
28701;BME280;15877;52.344;16.790;2023-04-06T12:54:23;101149.12;;;13.27;34.81
28701;BME280;15877;52.344;16.790;2023-04-06T12:56:57;101139.94;;;13.34;35.28
28701;BME280;15877;52.344;16.790;2023-04-06T12:59:30;101138.55;;;13.47;35.50
28701;BME280;15877;52.344;16.790;2023-04-06T13:02:06;101137.32;;;13.53;34.98
28701;BME280;15877;52.344;16.790;2023-04-06T13:04:39;101132.25;;;13.44;34.12
28701;BME280;15877;52.344;16.790;2023-04-06T13:07:12;101125.81;;;13.41;35.12
28701;BME280;15877;52.344;16.790;2023-04-06T13:09:45;101123.04;;;13.38;35.30
28701;BME280;15877;52.344;16.790;2023-04-06T13:12:20;101120.51;;;13.46;35.46
28701;BME280;15877;52.344;16.790;2023-04-06T13:14:52;101120.14;;;13.52;35.03
28701;BME280;15877;52.344;16.790;2023-04-06T13:17:28;101116.52;;;13.54;36.04
28701;BME280;15877;52.344;16.790;2023-04-06T13:19:59;101116.55;;;13.48;35.00
28701;BME280;15877;52.344;16.790;2023-04-06T13:22:32;101114.79;;;13.59;35.42
28701;BME280;15877;52.344;16.790;2023-04-06T13:25:06;101117.09;;;13.62;35.90
28701;BME280;15877;52.344;16.790;2023-04-06T13:27:39;101113.60;;;13.71;35.61